createdAt,value
2019-01-14T00:00:54.566Z,1.20
2019-01-14T00:03:41.627Z,1.20
2019-01-14T00:06:29.037Z,0.90
2019-01-14T00:09:23.413Z,0.87
2019-01-14T00:12:05.102Z,0.63
2019-01-14T00:14:52.269Z,1.00
2019-01-14T00:17:39.620Z,0.87
2019-01-14T00:20:26.988Z,1.00
2019-01-14T00:23:14.565Z,1.00
2019-01-14T00:26:01.451Z,1.20
2019-01-14T00:28:48.461Z,1.30
2019-01-14T00:31:35.585Z,1.27
2019-01-14T00:34:23.156Z,1.10
2019-01-14T00:37:09.796Z,1.30
2019-01-14T00:39:56.808Z,1.40
2019-01-14T00:42:44.284Z,1.33
2019-01-14T00:45:31.299Z,1.50
2019-01-14T00:48:18.244Z,1.40
2019-01-14T00:51:05.653Z,1.40
2019-01-14T00:53:52.564Z,1.00
2019-01-14T00:56:39.253Z,1.10
2019-01-14T00:59:26.464Z,1.07
2019-01-14T01:02:13.768Z,1.40
2019-01-14T01:05:01.099Z,1.67
2019-01-14T01:07:48.256Z,1.70
2019-01-14T01:10:35.405Z,1.33
2019-01-14T01:13:22.669Z,1.60
2019-01-14T01:16:09.953Z,1.40
2019-01-14T01:18:56.898Z,1.23
2019-01-14T01:21:43.898Z,1.10
2019-01-14T01:24:31.072Z,1.13
2019-01-14T01:27:18.025Z,1.40
2019-01-14T01:30:11.670Z,1.20
2019-01-14T01:32:58.446Z,1.40
2019-01-14T01:35:45.424Z,1.20
2019-01-14T01:38:32.118Z,0.90
2019-01-14T01:41:19.624Z,1.00
2019-01-14T01:44:06.932Z,1.10
2019-01-14T01:46:53.948Z,1.30
2019-01-14T01:49:41.219Z,1.30
2019-01-14T01:52:27.851Z,1.40
2019-01-14T01:55:15.426Z,1.40
2019-01-14T01:58:02.428Z,1.60
2019-01-14T02:00:49.535Z,1.00
2019-01-14T02:03:36.448Z,1.23
2019-01-14T02:06:23.688Z,1.20
2019-01-14T02:09:10.773Z,1.50
2019-01-14T02:11:57.975Z,1.50
2019-01-14T02:14:45.213Z,1.50
2019-01-14T02:17:32.489Z,1.40
2019-01-14T02:20:19.836Z,1.57
2019-01-14T02:23:07.092Z,1.70
2019-01-14T02:25:54.119Z,1.70
2019-01-14T02:28:40.928Z,1.70
2019-01-14T02:31:27.629Z,1.70
2019-01-14T02:34:14.909Z,1.70
2019-01-14T02:37:02.061Z,1.83
2019-01-14T02:39:49.253Z,1.50
2019-01-14T02:42:36.480Z,1.87
2019-01-14T02:45:23.900Z,1.50
2019-01-14T02:48:10.612Z,1.80
2019-01-14T02:50:57.318Z,1.73
2019-01-14T02:53:44.321Z,1.63
2019-01-14T02:56:31.008Z,1.43
2019-01-14T02:59:18.256Z,1.40
2019-01-14T03:02:05.455Z,1.50
2019-01-14T03:04:52.517Z,1.13
2019-01-14T03:07:39.298Z,1.60
2019-01-14T03:10:26.603Z,1.80
2019-01-14T03:13:13.755Z,1.50
2019-01-14T03:16:00.731Z,1.40
2019-01-14T03:18:47.670Z,1.27
2019-01-14T03:21:34.694Z,1.50
2019-01-14T03:24:21.982Z,1.27
2019-01-14T03:27:09.222Z,1.10
2019-01-14T03:29:56.208Z,1.50
2019-01-14T03:32:43.427Z,1.27
2019-01-14T03:35:30.363Z,1.10
2019-01-14T03:38:17.359Z,1.50
2019-01-14T03:41:04.732Z,1.40
2019-01-14T03:43:51.955Z,1.30
2019-01-14T03:46:41.113Z,1.40
2019-01-14T03:49:28.096Z,1.20
2019-01-14T03:52:15.234Z,1.37
2019-01-14T03:55:02.037Z,1.30
2019-01-14T03:57:50.888Z,1.30
2019-01-14T04:00:38.321Z,1.37
2019-01-14T04:03:25.712Z,1.33
2019-01-14T04:06:12.961Z,2.43
2019-01-14T04:08:59.684Z,3.80
2019-01-14T04:11:46.803Z,3.23
2019-01-14T04:14:33.457Z,3.30
2019-01-14T04:17:20.470Z,2.20
2019-01-14T04:20:10.599Z,2.03
2019-01-14T04:22:57.469Z,2.20
2019-01-14T04:25:44.435Z,2.00
2019-01-14T04:28:31.899Z,3.07
2019-01-14T04:31:18.849Z,2.23
2019-01-14T04:34:06.112Z,2.20
2019-01-14T04:36:53.111Z,1.90
2019-01-14T04:39:40.439Z,2.73
2019-01-14T04:42:27.472Z,2.13
2019-01-14T04:45:15.596Z,1.97
2019-01-14T04:48:02.913Z,2.60
2019-01-14T04:50:50.051Z,2.50
2019-01-14T04:53:37.048Z,2.40
2019-01-14T04:56:23.830Z,2.10
2019-01-14T04:59:11.101Z,2.63
2019-01-14T05:01:58.370Z,1.93
2019-01-14T05:04:45.115Z,2.40
2019-01-14T05:07:32.429Z,2.23
2019-01-14T05:10:20.879Z,2.00
2019-01-14T05:13:08.138Z,2.00
2019-01-14T05:15:55.178Z,1.80
2019-01-14T05:18:41.948Z,1.83
2019-01-14T05:21:29.577Z,1.90
2019-01-14T05:24:16.593Z,1.97
2019-01-14T05:27:04.050Z,1.87
2019-01-14T05:29:51.025Z,1.90
2019-01-14T05:32:37.968Z,1.73
2019-01-14T05:35:25.720Z,2.20
2019-01-14T05:38:12.438Z,2.00
2019-01-14T05:40:59.617Z,1.80
2019-01-14T05:43:47.088Z,2.00
2019-01-14T05:46:34.233Z,1.60
2019-01-14T05:49:21.168Z,2.00
2019-01-14T05:52:08.349Z,1.90
2019-01-14T05:54:55.446Z,1.93
2019-01-14T05:57:42.145Z,2.10
2019-01-14T06:00:33.349Z,2.10
2019-01-14T06:03:20.647Z,1.90
2019-01-14T06:06:07.385Z,2.03
2019-01-14T06:08:54.082Z,1.70
2019-01-14T06:11:41.423Z,1.80
2019-01-14T06:14:28.827Z,2.13
2019-01-14T06:17:15.811Z,1.63
2019-01-14T06:20:03.303Z,2.27
2019-01-14T06:22:50.071Z,1.40
2019-01-14T06:25:37.358Z,1.87
2019-01-14T06:28:24.313Z,1.50
2019-01-14T06:31:11.290Z,1.90
2019-01-14T06:33:57.955Z,1.90
2019-01-14T06:36:45.238Z,1.70
2019-01-14T06:39:32.164Z,1.60
2019-01-14T06:42:19.468Z,1.77
2019-01-14T06:45:07.949Z,1.90
2019-01-14T06:47:54.919Z,2.03
2019-01-14T06:50:41.903Z,2.10
2019-01-14T06:53:29.119Z,1.90
2019-01-14T06:56:16.036Z,1.60
2019-01-14T06:59:03.037Z,2.20
2019-01-14T07:01:49.854Z,1.97
2019-01-14T07:04:36.741Z,2.33
2019-01-14T07:07:23.763Z,2.67
2019-01-14T07:10:16.517Z,2.03
2019-01-14T07:13:03.677Z,1.80
2019-01-14T07:15:50.579Z,2.07
2019-01-14T07:18:37.268Z,1.73
2019-01-14T07:21:24.119Z,2.40
2019-01-14T07:24:11.301Z,2.30
2019-01-14T07:26:58.619Z,2.27
2019-01-14T07:29:45.937Z,2.53
2019-01-14T07:32:32.943Z,2.70
2019-01-14T07:35:19.688Z,2.60
2019-01-14T07:38:07.243Z,2.67
2019-01-14T07:40:54.173Z,2.50
2019-01-14T07:43:41.175Z,2.57
2019-01-14T07:46:28.390Z,2.60
2019-01-14T07:49:15.506Z,2.63
2019-01-14T07:52:02.493Z,2.30
2019-01-14T07:54:49.713Z,2.50
2019-01-14T07:57:37.122Z,2.20
2019-01-14T08:00:24.879Z,2.60
2019-01-14T08:03:11.964Z,2.20
2019-01-14T08:05:58.610Z,1.93
2019-01-14T08:08:45.413Z,2.30
2019-01-14T08:11:32.644Z,2.57
2019-01-14T08:14:19.988Z,2.23
2019-01-14T08:17:06.801Z,2.53
2019-01-14T08:19:53.998Z,2.23
2019-01-14T08:22:41.086Z,2.00
2019-01-14T08:25:28.195Z,2.20
2019-01-14T08:28:15.098Z,2.10
2019-01-14T08:31:02.294Z,2.27
2019-01-14T08:33:49.704Z,2.30
2019-01-14T08:36:36.617Z,2.30
2019-01-14T08:39:23.851Z,2.13
2019-01-14T08:42:11.248Z,2.17
2019-01-14T08:44:58.575Z,2.30
2019-01-14T08:47:45.592Z,2.70
2019-01-14T08:50:32.272Z,2.23
2019-01-14T08:53:19.708Z,2.47
2019-01-14T08:56:06.441Z,2.50
2019-01-14T08:58:53.649Z,2.53
2019-01-14T09:01:40.993Z,2.43
2019-01-14T09:04:32.401Z,2.43
2019-01-14T09:07:16.840Z,2.53
2019-01-14T09:10:05.853Z,2.60
2019-01-14T09:12:52.937Z,2.37
2019-01-14T09:15:40.151Z,2.37
2019-01-14T09:18:27.200Z,2.63
2019-01-14T09:21:13.975Z,2.37
2019-01-14T09:24:01.120Z,2.40
2019-01-14T09:26:48.365Z,2.30
2019-01-14T09:29:35.529Z,2.60
2019-01-14T09:32:22.848Z,2.90
2019-01-14T09:35:10.064Z,2.70
2019-01-14T09:37:56.768Z,2.73
2019-01-14T09:40:44.149Z,2.27
2019-01-14T09:43:31.176Z,3.90
2019-01-14T09:46:17.928Z,2.90
2019-01-14T09:49:05.081Z,3.10
2019-01-14T09:51:52.320Z,2.87
2019-01-14T09:54:39.475Z,3.07
2019-01-14T09:57:26.685Z,2.80
2019-01-14T10:00:13.734Z,2.70
2019-01-14T10:03:00.917Z,2.90
2019-01-14T10:05:48.128Z,2.70
2019-01-14T10:08:35.061Z,3.03
2019-01-14T10:11:22.068Z,3.70
2019-01-14T10:14:09.014Z,3.20
2019-01-14T10:16:56.653Z,2.83
2019-01-14T10:19:43.574Z,3.13
2019-01-14T10:22:30.639Z,5.23
2019-01-14T10:25:17.718Z,2.93
2019-01-14T10:28:05.138Z,3.10
2019-01-14T10:30:52.184Z,2.53
2019-01-14T10:33:39.543Z,2.97
2019-01-14T10:36:26.928Z,2.80
2019-01-14T10:39:13.891Z,3.00
2019-01-14T10:42:04.911Z,3.33
2019-01-14T10:44:49.837Z,3.13
2019-01-14T10:47:37.236Z,3.30
2019-01-14T10:50:24.576Z,3.30
2019-01-14T10:53:11.669Z,3.00
2019-01-14T10:55:59.185Z,3.50
2019-01-14T10:58:46.294Z,3.37
2019-01-14T11:01:33.749Z,3.47
2019-01-14T11:04:20.961Z,3.20
2019-01-14T11:07:07.856Z,2.97
2019-01-14T11:09:54.561Z,3.17
2019-01-14T11:12:41.893Z,3.00
2019-01-14T11:15:29.034Z,3.50
2019-01-14T11:18:16.319Z,3.07
2019-01-14T11:21:03.457Z,2.73
2019-01-14T11:23:50.559Z,3.03
2019-01-14T11:26:37.593Z,3.10
2019-01-14T11:29:24.508Z,2.93
2019-01-14T11:32:11.494Z,2.90
2019-01-14T11:34:58.896Z,2.97
2019-01-14T11:37:46.130Z,2.33
2019-01-14T11:40:35.386Z,2.90
2019-01-14T11:43:22.825Z,3.00
2019-01-14T11:46:09.959Z,2.87
2019-01-14T11:48:58.387Z,2.73
2019-01-14T11:51:45.608Z,2.87
2019-01-14T11:54:32.697Z,2.60
2019-01-14T11:57:19.663Z,2.33
2019-01-14T12:00:15.661Z,2.17
2019-01-14T12:03:02.852Z,2.27
2019-01-14T12:05:49.884Z,2.50
2019-01-14T12:08:36.775Z,2.60
2019-01-14T12:11:23.970Z,2.57
2019-01-14T12:14:10.877Z,2.40
2019-01-14T12:16:57.658Z,2.97
2019-01-14T12:19:44.561Z,2.30
2019-01-14T12:22:31.729Z,2.67
2019-01-14T12:25:19.911Z,2.83
2019-01-14T12:28:07.100Z,2.77
2019-01-14T12:30:54.117Z,2.60
2019-01-14T12:33:40.900Z,2.90
2019-01-14T12:36:27.894Z,2.90
2019-01-14T12:39:19.515Z,2.67
2019-01-14T12:42:03.442Z,2.77
2019-01-14T12:44:50.480Z,2.53
2019-01-14T12:47:37.233Z,2.57
2019-01-14T12:50:25.105Z,2.77
2019-01-14T12:53:12.121Z,2.07
2019-01-14T12:55:59.369Z,2.50
2019-01-14T12:58:46.577Z,2.50
2019-01-14T13:01:33.477Z,1.80
2019-01-14T13:04:20.788Z,2.03
2019-01-14T13:07:07.511Z,2.60
2019-01-14T13:09:54.600Z,2.83
2019-01-14T13:12:42.183Z,2.40
2019-01-14T13:15:29.124Z,2.37
2019-01-14T13:18:16.048Z,2.10
2019-01-14T13:21:03.254Z,3.37
2019-01-14T13:23:49.904Z,2.40
2019-01-14T13:26:36.657Z,2.60
2019-01-14T13:29:23.620Z,2.60
2019-01-14T13:32:10.606Z,2.30
2019-01-14T13:34:57.569Z,2.70
2019-01-14T13:37:44.572Z,2.70
2019-01-14T13:40:32.070Z,2.60
2019-01-14T13:43:19.220Z,2.63
2019-01-14T13:46:06.319Z,2.87
2019-01-14T13:48:53.725Z,2.63
2019-01-14T13:51:40.726Z,2.00
2019-01-14T13:54:27.987Z,2.30
2019-01-14T13:57:15.165Z,2.33
2019-01-14T14:00:02.463Z,2.30
2019-01-14T14:02:49.705Z,2.07
2019-01-14T14:05:36.978Z,1.80
2019-01-14T14:08:24.378Z,2.10
2019-01-14T14:11:11.516Z,2.10
2019-01-14T14:13:58.647Z,2.00
2019-01-14T14:16:45.882Z,2.00
2019-01-14T14:19:32.538Z,1.90
2019-01-14T14:22:19.480Z,1.87
2019-01-14T14:25:08.877Z,2.17
2019-01-14T14:27:55.940Z,1.90
2019-01-14T14:30:42.986Z,1.33
2019-01-14T14:33:32.639Z,1.80
2019-01-14T14:36:20.063Z,1.80
2019-01-14T14:39:08.589Z,1.73
2019-01-14T14:41:55.603Z,1.87
2019-01-14T14:44:42.579Z,1.50
2019-01-14T14:47:29.709Z,0.90
2019-01-14T14:50:20.969Z,0.70
2019-01-14T14:53:08.248Z,1.37
2019-01-14T14:55:54.919Z,0.73
2019-01-14T14:58:41.637Z,0.87
2019-01-14T15:01:28.314Z,0.90
2019-01-14T15:04:15.536Z,0.93
2019-01-14T15:07:02.581Z,1.30
2019-01-14T15:09:55.659Z,1.10
2019-01-14T15:12:38.485Z,1.20
2019-01-14T15:15:26.075Z,1.33
2019-01-14T15:18:12.999Z,1.10
2019-01-14T15:21:00.164Z,1.10
2019-01-14T15:23:47.257Z,0.90
2019-01-14T15:26:34.288Z,0.80
2019-01-14T15:29:20.980Z,1.30
2019-01-14T15:32:07.961Z,1.10
2019-01-14T15:34:54.756Z,1.00
2019-01-14T15:37:42.035Z,1.80
2019-01-14T15:40:28.906Z,1.40
2019-01-14T15:43:16.053Z,1.67
2019-01-14T15:46:03.161Z,1.40
2019-01-14T15:48:50.599Z,1.70
2019-01-14T15:51:37.542Z,1.67
2019-01-14T15:54:24.754Z,1.47
2019-01-14T15:57:12.024Z,1.50
2019-01-14T15:59:59.298Z,4.07
2019-01-14T16:02:46.681Z,2.70
2019-01-14T16:05:33.794Z,2.47
2019-01-14T16:08:20.856Z,1.80
2019-01-14T16:11:07.850Z,1.10
2019-01-14T16:13:55.326Z,1.80
2019-01-14T16:16:42.552Z,1.70
2019-01-14T16:19:29.519Z,1.60
2019-01-14T16:22:16.857Z,2.13
2019-01-14T16:25:05.139Z,1.80
2019-01-14T16:27:52.085Z,1.50
2019-01-14T16:30:38.915Z,1.83
2019-01-14T16:33:26.288Z,1.40
2019-01-14T16:36:13.023Z,1.23
2019-01-14T16:39:00.239Z,1.40
2019-01-14T16:41:47.648Z,3.57
2019-01-14T16:44:34.623Z,1.83
2019-01-14T16:47:21.980Z,0.97
2019-01-14T16:50:11.698Z,1.40
2019-01-14T16:52:58.996Z,1.37
2019-01-14T16:55:46.447Z,1.50
2019-01-14T16:58:33.217Z,1.77
2019-01-14T17:01:20.296Z,1.60
2019-01-14T17:04:07.133Z,1.70
2019-01-14T17:06:54.151Z,1.70
2019-01-14T17:09:41.237Z,1.67
2019-01-14T17:12:28.252Z,1.90
2019-01-14T17:15:15.161Z,1.60
2019-01-14T17:18:02.438Z,1.97
2019-01-14T17:20:49.798Z,2.40
2019-01-14T17:23:36.825Z,2.63
2019-01-14T17:26:23.779Z,2.50
2019-01-14T17:29:10.912Z,2.23
2019-01-14T17:31:58.151Z,2.50
2019-01-14T17:34:45.115Z,2.40
2019-01-14T17:37:32.401Z,1.90
2019-01-14T17:40:21.028Z,2.40
2019-01-14T17:43:08.093Z,5.27
2019-01-14T17:45:55.482Z,6.83
2019-01-14T17:48:42.519Z,4.83
2019-01-14T17:51:29.814Z,4.23
2019-01-14T17:54:16.760Z,3.30
2019-01-14T17:57:03.880Z,2.07
2019-01-14T17:59:51.253Z,2.57
2019-01-14T18:02:38.504Z,2.40
2019-01-14T18:05:25.886Z,3.07
2019-01-14T18:08:13.332Z,2.90
2019-01-14T18:11:01.784Z,2.33
2019-01-14T18:13:49.258Z,2.50
2019-01-14T18:16:36.637Z,3.00
2019-01-14T18:19:23.880Z,3.50
2019-01-14T18:22:10.872Z,3.50
2019-01-14T18:24:58.068Z,3.90
2019-01-14T18:27:45.474Z,3.80
2019-01-14T18:30:32.544Z,5.80
2019-01-14T18:33:19.369Z,4.10
2019-01-14T18:36:06.796Z,3.73
2019-01-14T18:38:53.892Z,4.83
2019-01-14T18:41:40.949Z,4.80
2019-01-14T18:44:28.039Z,5.77
2019-01-14T18:47:15.114Z,4.87
2019-01-14T18:50:02.263Z,3.83
2019-01-14T18:52:49.713Z,3.50
2019-01-14T18:55:37.053Z,2.53
2019-01-14T18:58:23.857Z,3.60
2019-01-14T19:01:11.125Z,3.80
2019-01-14T19:03:58.523Z,4.00
2019-01-14T19:06:45.760Z,4.00
2019-01-14T19:09:33.609Z,3.50
2019-01-14T19:12:20.955Z,3.93
2019-01-14T19:15:13.846Z,3.90
2019-01-14T19:18:01.076Z,3.73
2019-01-14T19:20:48.337Z,4.30
2019-01-14T19:23:35.036Z,5.37
2019-01-14T19:26:22.080Z,5.97
2019-01-14T19:29:09.333Z,6.00
2019-01-14T19:31:56.323Z,5.67
2019-01-14T19:34:43.814Z,5.73
2019-01-14T19:37:30.482Z,5.47
2019-01-14T19:40:19.002Z,5.60
2019-01-14T19:43:06.129Z,5.10
2019-01-14T19:45:53.624Z,5.17
2019-01-14T19:48:41.169Z,5.33
2019-01-14T19:51:28.222Z,5.43
2019-01-14T19:54:14.939Z,5.80
2019-01-14T19:57:01.644Z,5.80
2019-01-14T19:59:48.592Z,6.17
2019-01-14T20:02:35.948Z,6.80
2019-01-14T20:05:23.047Z,7.00
2019-01-14T20:08:10.411Z,7.73
2019-01-14T20:10:58.061Z,7.20
2019-01-14T20:13:44.926Z,7.00
2019-01-14T20:16:32.218Z,6.57
2019-01-14T20:19:19.105Z,6.00
2019-01-14T20:22:06.634Z,5.17
2019-01-14T20:24:53.680Z,4.90
2019-01-14T20:27:41.110Z,4.83
2019-01-14T20:30:28.355Z,4.50
2019-01-14T20:33:15.624Z,4.50
2019-01-14T20:36:02.658Z,3.70
2019-01-14T20:38:49.321Z,4.00
2019-01-14T20:41:36.839Z,4.37
2019-01-14T20:44:24.131Z,4.10
2019-01-14T20:47:11.115Z,4.23
2019-01-14T20:49:58.075Z,3.97
2019-01-14T20:52:45.318Z,4.63
2019-01-14T20:55:32.572Z,9.20
2019-01-14T20:58:19.825Z,9.63
2019-01-14T21:01:07.213Z,8.73
2019-01-14T21:03:54.453Z,9.27
2019-01-14T21:06:41.780Z,7.03
2019-01-14T21:09:29.141Z,9.73
2019-01-14T21:12:15.859Z,7.07
2019-01-14T21:15:02.613Z,6.63
2019-01-14T21:17:49.701Z,6.73
2019-01-14T21:20:36.897Z,12.60
2019-01-14T21:23:23.857Z,12.20
2019-01-14T21:26:10.985Z,9.73
2019-01-14T21:28:58.202Z,6.60
2019-01-14T21:31:45.260Z,5.90
2019-01-14T21:34:32.215Z,5.77
2019-01-14T21:37:19.219Z,5.60
2019-01-14T21:40:09.358Z,5.40
2019-01-14T21:42:56.064Z,5.93
2019-01-14T21:45:43.321Z,5.90
2019-01-14T21:48:30.598Z,5.37
2019-01-14T21:51:17.395Z,5.20
2019-01-14T21:54:04.415Z,5.70
2019-01-14T21:56:51.716Z,5.40
2019-01-14T21:59:38.927Z,6.73
2019-01-14T22:02:25.860Z,5.83
2019-01-14T22:05:13.319Z,5.23
2019-01-14T22:08:00.496Z,6.00
2019-01-14T22:10:47.334Z,5.37
2019-01-14T22:13:34.645Z,6.37
2019-01-14T22:16:21.654Z,6.27
2019-01-14T22:19:08.845Z,8.17
2019-01-14T22:21:56.108Z,7.67
2019-01-14T22:24:43.474Z,9.50
2019-01-14T22:27:30.690Z,10.57
2019-01-14T22:30:20.391Z,9.07
2019-01-14T22:33:07.185Z,9.47
2019-01-14T22:35:54.172Z,10.27
2019-01-14T22:38:41.374Z,10.20
2019-01-14T22:41:28.296Z,10.40
2019-01-14T22:44:15.380Z,10.50
2019-01-14T22:47:02.061Z,10.20
2019-01-14T22:49:48.736Z,9.83
2019-01-14T22:52:36.230Z,8.60
2019-01-14T22:55:23.160Z,9.60
2019-01-14T22:58:10.141Z,8.47
2019-01-14T23:01:01.320Z,8.60
2019-01-14T23:03:48.132Z,8.00
2019-01-14T23:06:35.389Z,7.63
2019-01-14T23:09:22.455Z,7.37
2019-01-14T23:12:09.585Z,6.37
2019-01-14T23:14:56.644Z,6.53
2019-01-14T23:17:43.590Z,6.17
2019-01-14T23:20:30.802Z,6.50
2019-01-14T23:23:17.713Z,6.27
2019-01-14T23:26:04.767Z,7.60
2019-01-14T23:28:51.767Z,6.70
2019-01-14T23:31:39.168Z,7.10
2019-01-14T23:34:26.209Z,7.37
2019-01-14T23:37:13.201Z,7.33
2019-01-14T23:40:00.542Z,7.53
2019-01-14T23:42:47.856Z,7.90
2019-01-14T23:45:34.861Z,7.50
2019-01-14T23:48:22.007Z,8.10
2019-01-14T23:51:09.084Z,7.63
2019-01-14T23:53:56.231Z,8.13
2019-01-14T23:56:43.484Z,8.30
2019-01-14T23:59:30.500Z,9.70
